sensor_id;sensor_type;location;lat;lon;timestamp;P1;durP1;ratioP1;P2;durP2;ratioP2
6840;SDS011;3458;53.678;14.080;2023-03-23T00:02:10;6.40;;;4.50;;
6840;SDS011;3458;53.678;14.080;2023-03-23T00:04:36;8.83;;;3.53;;
6840;SDS011;3458;53.678;14.080;2023-03-23T00:07:01;12.47;;;3.97;;
6840;SDS011;3458;53.678;14.080;2023-03-23T00:09:28;6.93;;;3.40;;
6840;SDS011;3458;53.678;14.080;2023-03-23T00:11:54;6.53;;;3.33;;
6840;SDS011;3458;53.678;14.080;2023-03-23T00:14:22;9.87;;;3.70;;
6840;SDS011;3458;53.678;14.080;2023-03-23T00:16:48;7.10;;;3.27;;
6840;SDS011;3458;53.678;14.080;2023-03-23T00:19:15;4.27;;;3.13;;
6840;SDS011;3458;53.678;14.080;2023-03-23T00:21:42;11.03;;;3.60;;
6840;SDS011;3458;53.678;14.080;2023-03-23T00:24:11;8.00;;;3.57;;
6840;SDS011;3458;53.678;14.080;2023-03-23T00:26:42;7.53;;;3.90;;
6840;SDS011;3458;53.678;14.080;2023-03-23T00:29:13;8.70;;;4.30;;
6840;SDS011;3458;53.678;14.080;2023-03-23T00:31:44;4.70;;;3.30;;
6840;SDS011;3458;53.678;14.080;2023-03-23T00:34:12;9.73;;;3.57;;
6840;SDS011;3458;53.678;14.080;2023-03-23T00:36:44;9.00;;;4.10;;
6840;SDS011;3458;53.678;14.080;2023-03-23T00:39:14;5.10;;;3.80;;
6840;SDS011;3458;53.678;14.080;2023-03-23T00:41:43;7.73;;;3.47;;
6840;SDS011;3458;53.678;14.080;2023-03-23T00:44:09;5.67;;;3.67;;
6840;SDS011;3458;53.678;14.080;2023-03-23T00:46:41;9.73;;;3.63;;
6840;SDS011;3458;53.678;14.080;2023-03-23T00:49:13;13.37;;;4.10;;
6840;SDS011;3458;53.678;14.080;2023-03-23T00:51:43;12.13;;;3.97;;
6840;SDS011;3458;53.678;14.080;2023-03-23T00:54:10;7.90;;;4.30;;
6840;SDS011;3458;53.678;14.080;2023-03-23T00:56:36;5.20;;;4.10;;
6840;SDS011;3458;53.678;14.080;2023-03-23T00:59:03;11.40;;;4.17;;
6840;SDS011;3458;53.678;14.080;2023-03-23T01:01:29;7.50;;;3.60;;
6840;SDS011;3458;53.678;14.080;2023-03-23T01:03:55;4.93;;;3.60;;
6840;SDS011;3458;53.678;14.080;2023-03-23T01:06:25;13.20;;;3.20;;
6840;SDS011;3458;53.678;14.080;2023-03-23T01:08:52;6.13;;;3.60;;
6840;SDS011;3458;53.678;14.080;2023-03-23T01:11:18;8.63;;;4.10;;
6840;SDS011;3458;53.678;14.080;2023-03-23T01:13:44;5.53;;;3.20;;
6840;SDS011;3458;53.678;14.080;2023-03-23T01:16:10;7.70;;;3.87;;
6840;SDS011;3458;53.678;14.080;2023-03-23T01:18:36;5.80;;;3.63;;
6840;SDS011;3458;53.678;14.080;2023-03-23T01:21:03;12.73;;;3.23;;
6840;SDS011;3458;53.678;14.080;2023-03-23T01:23:33;4.33;;;3.00;;
6840;SDS011;3458;53.678;14.080;2023-03-23T01:26:03;7.77;;;3.80;;
6840;SDS011;3458;53.678;14.080;2023-03-23T01:28:33;8.80;;;3.40;;
6840;SDS011;3458;53.678;14.080;2023-03-23T01:31:01;4.30;;;3.00;;
6840;SDS011;3458;53.678;14.080;2023-03-23T01:33:28;5.00;;;3.73;;
6840;SDS011;3458;53.678;14.080;2023-03-23T01:35:54;3.93;;;3.53;;
6840;SDS011;3458;53.678;14.080;2023-03-23T01:38:20;10.50;;;3.77;;
6840;SDS011;3458;53.678;14.080;2023-03-23T01:40:46;6.37;;;3.30;;
6840;SDS011;3458;53.678;14.080;2023-03-23T01:43:12;9.60;;;3.17;;
6840;SDS011;3458;53.678;14.080;2023-03-23T01:45:39;10.03;;;3.30;;
6840;SDS011;3458;53.678;14.080;2023-03-23T01:48:22;4.30;;;3.00;;
6840;SDS011;3458;53.678;14.080;2023-03-23T01:53:28;6.63;;;3.30;;
6840;SDS011;3458;53.678;14.080;2023-03-23T01:55:58;6.20;;;3.60;;
6840;SDS011;3458;53.678;14.080;2023-03-23T01:58:27;5.90;;;2.93;;
6840;SDS011;3458;53.678;14.080;2023-03-23T02:00:55;4.50;;;3.10;;
6840;SDS011;3458;53.678;14.080;2023-03-23T02:03:25;10.30;;;3.60;;
6840;SDS011;3458;53.678;14.080;2023-03-23T02:05:52;7.30;;;3.10;;
6840;SDS011;3458;53.678;14.080;2023-03-23T02:08:19;4.37;;;3.17;;
6840;SDS011;3458;53.678;14.080;2023-03-23T02:10:45;5.23;;;3.20;;
6840;SDS011;3458;53.678;14.080;2023-03-23T02:13:11;9.63;;;3.30;;
6840;SDS011;3458;53.678;14.080;2023-03-23T02:15:45;3.60;;;3.30;;
6840;SDS011;3458;53.678;14.080;2023-03-23T02:26:50;13.93;;;3.60;;
6840;SDS011;3458;53.678;14.080;2023-03-23T02:34:57;4.43;;;3.20;;
6840;SDS011;3458;53.678;14.080;2023-03-23T02:37:28;4.77;;;3.50;;
6840;SDS011;3458;53.678;14.080;2023-03-23T02:39:58;6.67;;;3.27;;
6840;SDS011;3458;53.678;14.080;2023-03-23T02:42:38;6.23;;;3.77;;
6840;SDS011;3458;53.678;14.080;2023-03-23T02:45:07;7.93;;;3.97;;
6840;SDS011;3458;53.678;14.080;2023-03-23T02:47:35;5.07;;;3.23;;
6840;SDS011;3458;53.678;14.080;2023-03-23T02:50:03;7.83;;;3.70;;
6840;SDS011;3458;53.678;14.080;2023-03-23T02:52:31;7.20;;;3.73;;
6840;SDS011;3458;53.678;14.080;2023-03-23T02:54:59;5.27;;;2.73;;
6840;SDS011;3458;53.678;14.080;2023-03-23T02:57:26;6.87;;;3.50;;
6840;SDS011;3458;53.678;14.080;2023-03-23T02:59:52;7.50;;;5.00;;
6840;SDS011;3458;53.678;14.080;2023-03-23T03:02:27;6.70;;;4.07;;
6840;SDS011;3458;53.678;14.080;2023-03-23T03:10:46;8.80;;;3.90;;
6840;SDS011;3458;53.678;14.080;2023-03-23T03:13:25;8.63;;;3.67;;
6840;SDS011;3458;53.678;14.080;2023-03-23T03:16:07;6.80;;;4.33;;
6840;SDS011;3458;53.678;14.080;2023-03-23T03:21:12;6.20;;;3.60;;
6840;SDS011;3458;53.678;14.080;2023-03-23T03:23:40;11.63;;;3.80;;
6840;SDS011;3458;53.678;14.080;2023-03-23T03:26:09;5.80;;;4.37;;
6840;SDS011;3458;53.678;14.080;2023-03-23T03:28:36;7.90;;;4.83;;
6840;SDS011;3458;53.678;14.080;2023-03-23T03:31:03;13.70;;;4.50;;
6840;SDS011;3458;53.678;14.080;2023-03-23T03:33:31;7.70;;;4.30;;
6840;SDS011;3458;53.678;14.080;2023-03-23T03:35:59;6.10;;;4.00;;
6840;SDS011;3458;53.678;14.080;2023-03-23T03:38:27;6.07;;;4.20;;
6840;SDS011;3458;53.678;14.080;2023-03-23T03:40:54;8.33;;;4.33;;
6840;SDS011;3458;53.678;14.080;2023-03-23T03:43:21;8.30;;;4.37;;
6840;SDS011;3458;53.678;14.080;2023-03-23T03:45:46;5.47;;;4.50;;
6840;SDS011;3458;53.678;14.080;2023-03-23T03:48:12;7.60;;;4.20;;
6840;SDS011;3458;53.678;14.080;2023-03-23T03:50:37;8.90;;;4.87;;
6840;SDS011;3458;53.678;14.080;2023-03-23T03:53:03;5.17;;;3.83;;
6840;SDS011;3458;53.678;14.080;2023-03-23T03:55:30;9.97;;;4.13;;
6840;SDS011;3458;53.678;14.080;2023-03-23T03:58:00;13.30;;;4.90;;
6840;SDS011;3458;53.678;14.080;2023-03-23T04:00:29;6.53;;;3.70;;
6840;SDS011;3458;53.678;14.080;2023-03-23T04:02:55;8.60;;;4.47;;
6840;SDS011;3458;53.678;14.080;2023-03-23T04:05:21;8.00;;;4.37;;
6840;SDS011;3458;53.678;14.080;2023-03-23T04:07:47;9.97;;;4.40;;
6840;SDS011;3458;53.678;14.080;2023-03-23T04:10:17;13.07;;;3.77;;
6840;SDS011;3458;53.678;14.080;2023-03-23T04:12:46;5.40;;;4.00;;
6840;SDS011;3458;53.678;14.080;2023-03-23T04:15:12;7.53;;;3.90;;
6840;SDS011;3458;53.678;14.080;2023-03-23T04:17:38;8.97;;;4.20;;
6840;SDS011;3458;53.678;14.080;2023-03-23T04:20:05;4.17;;;3.60;;
6840;SDS011;3458;53.678;14.080;2023-03-23T04:22:33;7.43;;;3.90;;
6840;SDS011;3458;53.678;14.080;2023-03-23T04:24:59;9.77;;;3.67;;
6840;SDS011;3458;53.678;14.080;2023-03-23T04:27:27;6.33;;;3.90;;
6840;SDS011;3458;53.678;14.080;2023-03-23T04:29:56;11.10;;;3.70;;
6840;SDS011;3458;53.678;14.080;2023-03-23T04:32:23;5.10;;;3.23;;
6840;SDS011;3458;53.678;14.080;2023-03-23T04:34:53;12.30;;;4.00;;
6840;SDS011;3458;53.678;14.080;2023-03-23T04:37:26;7.13;;;4.17;;
6840;SDS011;3458;53.678;14.080;2023-03-23T04:39:54;7.80;;;3.70;;
6840;SDS011;3458;53.678;14.080;2023-03-23T04:42:28;8.33;;;4.60;;
6840;SDS011;3458;53.678;14.080;2023-03-23T04:44:56;9.47;;;4.40;;
6840;SDS011;3458;53.678;14.080;2023-03-23T04:47:22;6.50;;;3.50;;
6840;SDS011;3458;53.678;14.080;2023-03-23T04:49:49;7.13;;;3.90;;
6840;SDS011;3458;53.678;14.080;2023-03-23T04:52:16;8.37;;;4.37;;
6840;SDS011;3458;53.678;14.080;2023-03-23T04:54:42;6.17;;;3.90;;
6840;SDS011;3458;53.678;14.080;2023-03-23T04:57:07;5.67;;;4.13;;
6840;SDS011;3458;53.678;14.080;2023-03-23T04:59:33;5.87;;;4.03;;
6840;SDS011;3458;53.678;14.080;2023-03-23T05:01:59;6.13;;;4.40;;
6840;SDS011;3458;53.678;14.080;2023-03-23T05:04:24;12.23;;;5.20;;
6840;SDS011;3458;53.678;14.080;2023-03-23T05:06:50;14.23;;;4.60;;
6840;SDS011;3458;53.678;14.080;2023-03-23T05:09:16;6.43;;;3.93;;
6840;SDS011;3458;53.678;14.080;2023-03-23T05:11:42;6.00;;;4.10;;
6840;SDS011;3458;53.678;14.080;2023-03-23T05:14:07;5.40;;;4.30;;
6840;SDS011;3458;53.678;14.080;2023-03-23T05:16:33;8.50;;;3.97;;
6840;SDS011;3458;53.678;14.080;2023-03-23T05:19:01;7.63;;;4.03;;
6840;SDS011;3458;53.678;14.080;2023-03-23T05:21:27;4.63;;;3.43;;
6840;SDS011;3458;53.678;14.080;2023-03-23T05:23:53;7.53;;;4.27;;
6840;SDS011;3458;53.678;14.080;2023-03-23T05:26:20;6.27;;;3.90;;
6840;SDS011;3458;53.678;14.080;2023-03-23T05:28:46;8.60;;;3.83;;
6840;SDS011;3458;53.678;14.080;2023-03-23T05:31:13;5.93;;;4.23;;
6840;SDS011;3458;53.678;14.080;2023-03-23T05:33:38;9.97;;;4.43;;
6840;SDS011;3458;53.678;14.080;2023-03-23T05:36:04;9.37;;;4.03;;
6840;SDS011;3458;53.678;14.080;2023-03-23T05:38:31;10.77;;;4.70;;
6840;SDS011;3458;53.678;14.080;2023-03-23T05:41:00;7.83;;;4.07;;
6840;SDS011;3458;53.678;14.080;2023-03-23T05:43:26;5.53;;;4.17;;
6840;SDS011;3458;53.678;14.080;2023-03-23T05:45:52;10.10;;;5.10;;
6840;SDS011;3458;53.678;14.080;2023-03-23T05:48:17;10.23;;;4.77;;
6840;SDS011;3458;53.678;14.080;2023-03-23T05:50:43;8.40;;;4.67;;
6840;SDS011;3458;53.678;14.080;2023-03-23T05:53:09;10.27;;;4.50;;
6840;SDS011;3458;53.678;14.080;2023-03-23T05:55:34;12.03;;;4.63;;
6840;SDS011;3458;53.678;14.080;2023-03-23T05:58:00;6.47;;;4.57;;
6840;SDS011;3458;53.678;14.080;2023-03-23T06:00:26;5.27;;;4.57;;
6840;SDS011;3458;53.678;14.080;2023-03-23T06:02:55;9.30;;;5.40;;
6840;SDS011;3458;53.678;14.080;2023-03-23T06:05:21;6.63;;;4.80;;
6840;SDS011;3458;53.678;14.080;2023-03-23T06:07:48;7.87;;;5.40;;
6840;SDS011;3458;53.678;14.080;2023-03-23T06:10:14;7.30;;;4.73;;
6840;SDS011;3458;53.678;14.080;2023-03-23T06:12:39;6.70;;;4.67;;
6840;SDS011;3458;53.678;14.080;2023-03-23T06:15:05;7.13;;;5.17;;
6840;SDS011;3458;53.678;14.080;2023-03-23T06:17:33;5.10;;;4.43;;
6840;SDS011;3458;53.678;14.080;2023-03-23T06:19:59;8.90;;;6.10;;
6840;SDS011;3458;53.678;14.080;2023-03-23T06:22:24;10.57;;;4.80;;
6840;SDS011;3458;53.678;14.080;2023-03-23T06:24:51;16.70;;;5.63;;
6840;SDS011;3458;53.678;14.080;2023-03-23T06:27:16;9.13;;;6.03;;
6840;SDS011;3458;53.678;14.080;2023-03-23T06:29:42;5.97;;;4.73;;
6840;SDS011;3458;53.678;14.080;2023-03-23T06:32:09;7.93;;;4.90;;
6840;SDS011;3458;53.678;14.080;2023-03-23T06:34:36;7.43;;;4.80;;
6840;SDS011;3458;53.678;14.080;2023-03-23T06:37:02;8.23;;;4.37;;
6840;SDS011;3458;53.678;14.080;2023-03-23T06:39:28;12.67;;;4.60;;
6840;SDS011;3458;53.678;14.080;2023-03-23T06:41:53;5.33;;;4.20;;
6840;SDS011;3458;53.678;14.080;2023-03-23T06:44:20;7.10;;;4.90;;
6840;SDS011;3458;53.678;14.080;2023-03-23T06:46:45;8.03;;;4.97;;
6840;SDS011;3458;53.678;14.080;2023-03-23T06:49:11;7.10;;;4.63;;
6840;SDS011;3458;53.678;14.080;2023-03-23T06:51:36;8.50;;;5.20;;
6840;SDS011;3458;53.678;14.080;2023-03-23T06:54:02;7.87;;;5.13;;
6840;SDS011;3458;53.678;14.080;2023-03-23T06:56:28;6.57;;;5.03;;
6840;SDS011;3458;53.678;14.080;2023-03-23T06:58:55;9.80;;;5.40;;
6840;SDS011;3458;53.678;14.080;2023-03-23T07:01:20;5.13;;;4.33;;
6840;SDS011;3458;53.678;14.080;2023-03-23T07:03:47;8.47;;;4.93;;
6840;SDS011;3458;53.678;14.080;2023-03-23T07:06:13;5.10;;;4.20;;
6840;SDS011;3458;53.678;14.080;2023-03-23T07:08:39;6.40;;;4.70;;
6840;SDS011;3458;53.678;14.080;2023-03-23T07:11:05;9.40;;;5.47;;
6840;SDS011;3458;53.678;14.080;2023-03-23T07:13:31;8.53;;;4.77;;
6840;SDS011;3458;53.678;14.080;2023-03-23T07:15:57;7.60;;;5.10;;
6840;SDS011;3458;53.678;14.080;2023-03-23T07:18:23;9.83;;;4.90;;
6840;SDS011;3458;53.678;14.080;2023-03-23T07:20:49;6.30;;;4.70;;
6840;SDS011;3458;53.678;14.080;2023-03-23T07:23:16;5.60;;;4.53;;
6840;SDS011;3458;53.678;14.080;2023-03-23T07:25:42;6.67;;;5.10;;
6840;SDS011;3458;53.678;14.080;2023-03-23T07:28:08;7.73;;;5.00;;
6840;SDS011;3458;53.678;14.080;2023-03-23T07:30:34;7.53;;;4.53;;
6840;SDS011;3458;53.678;14.080;2023-03-23T07:32:59;11.03;;;5.03;;
6840;SDS011;3458;53.678;14.080;2023-03-23T07:35:29;6.07;;;4.80;;
6840;SDS011;3458;53.678;14.080;2023-03-23T07:37:55;8.37;;;5.57;;
6840;SDS011;3458;53.678;14.080;2023-03-23T07:40:20;5.80;;;4.80;;
6840;SDS011;3458;53.678;14.080;2023-03-23T07:42:50;6.17;;;4.80;;
6840;SDS011;3458;53.678;14.080;2023-03-23T07:45:21;5.20;;;4.67;;
6840;SDS011;3458;53.678;14.080;2023-03-23T07:47:47;6.67;;;5.10;;
6840;SDS011;3458;53.678;14.080;2023-03-23T07:50:12;6.80;;;4.97;;
6840;SDS011;3458;53.678;14.080;2023-03-23T07:52:38;6.90;;;4.70;;
6840;SDS011;3458;53.678;14.080;2023-03-23T07:55:06;6.97;;;5.00;;
6840;SDS011;3458;53.678;14.080;2023-03-23T07:57:33;7.03;;;5.00;;
6840;SDS011;3458;53.678;14.080;2023-03-23T07:59:59;4.77;;;4.23;;
6840;SDS011;3458;53.678;14.080;2023-03-23T08:02:24;5.97;;;4.20;;
6840;SDS011;3458;53.678;14.080;2023-03-23T08:04:51;6.70;;;4.67;;
6840;SDS011;3458;53.678;14.080;2023-03-23T08:07:18;4.90;;;4.33;;
6840;SDS011;3458;53.678;14.080;2023-03-23T08:09:44;5.93;;;4.50;;
6840;SDS011;3458;53.678;14.080;2023-03-23T08:12:11;6.40;;;3.60;;
6840;SDS011;3458;53.678;14.080;2023-03-23T08:14:37;5.53;;;4.30;;
6840;SDS011;3458;53.678;14.080;2023-03-23T08:17:03;7.40;;;4.50;;
6840;SDS011;3458;53.678;14.080;2023-03-23T08:19:29;4.73;;;4.27;;
6840;SDS011;3458;53.678;14.080;2023-03-23T08:21:55;7.20;;;5.07;;
6840;SDS011;3458;53.678;14.080;2023-03-23T08:24:20;6.57;;;3.97;;
6840;SDS011;3458;53.678;14.080;2023-03-23T08:26:46;7.63;;;4.20;;
6840;SDS011;3458;53.678;14.080;2023-03-23T08:29:11;6.00;;;4.40;;
6840;SDS011;3458;53.678;14.080;2023-03-23T08:31:38;4.70;;;3.87;;
6840;SDS011;3458;53.678;14.080;2023-03-23T08:34:04;6.37;;;3.63;;
6840;SDS011;3458;53.678;14.080;2023-03-23T08:36:33;4.57;;;4.10;;
6840;SDS011;3458;53.678;14.080;2023-03-23T08:38:59;5.93;;;4.07;;
6840;SDS011;3458;53.678;14.080;2023-03-23T08:41:25;5.60;;;4.00;;
6840;SDS011;3458;53.678;14.080;2023-03-23T08:43:51;6.73;;;4.03;;
6840;SDS011;3458;53.678;14.080;2023-03-23T08:46:20;5.07;;;3.70;;
6840;SDS011;3458;53.678;14.080;2023-03-23T08:48:46;7.97;;;4.03;;
6840;SDS011;3458;53.678;14.080;2023-03-23T08:51:12;5.03;;;3.43;;
6840;SDS011;3458;53.678;14.080;2023-03-23T08:53:37;16.07;;;4.17;;
6840;SDS011;3458;53.678;14.080;2023-03-23T08:56:07;5.80;;;3.43;;
6840;SDS011;3458;53.678;14.080;2023-03-23T08:58:35;5.53;;;4.20;;
6840;SDS011;3458;53.678;14.080;2023-03-23T09:01:02;5.70;;;3.73;;
6840;SDS011;3458;53.678;14.080;2023-03-23T09:03:28;4.80;;;3.63;;
6840;SDS011;3458;53.678;14.080;2023-03-23T09:05:57;5.80;;;4.07;;
6840;SDS011;3458;53.678;14.080;2023-03-23T09:08:25;5.90;;;4.00;;
6840;SDS011;3458;53.678;14.080;2023-03-23T09:10:51;4.23;;;3.90;;
6840;SDS011;3458;53.678;14.080;2023-03-23T09:13:16;4.70;;;3.70;;
6840;SDS011;3458;53.678;14.080;2023-03-23T09:15:42;3.90;;;3.50;;
6840;SDS011;3458;53.678;14.080;2023-03-23T09:18:07;3.93;;;3.17;;
6840;SDS011;3458;53.678;14.080;2023-03-23T09:20:33;4.00;;;3.60;;
6840;SDS011;3458;53.678;14.080;2023-03-23T09:22:59;6.33;;;3.67;;
6840;SDS011;3458;53.678;14.080;2023-03-23T09:25:25;3.77;;;3.40;;
6840;SDS011;3458;53.678;14.080;2023-03-23T09:27:52;3.67;;;3.00;;
6840;SDS011;3458;53.678;14.080;2023-03-23T09:30:29;4.93;;;3.17;;
6840;SDS011;3458;53.678;14.080;2023-03-23T09:32:56;3.37;;;3.00;;
6840;SDS011;3458;53.678;14.080;2023-03-23T09:35:23;4.30;;;3.00;;
6840;SDS011;3458;53.678;14.080;2023-03-23T09:37:49;5.53;;;2.90;;
6840;SDS011;3458;53.678;14.080;2023-03-23T09:40:18;3.40;;;3.10;;
6840;SDS011;3458;53.678;14.080;2023-03-23T09:43:16;4.73;;;2.97;;
6840;SDS011;3458;53.678;14.080;2023-03-23T09:46:07;5.87;;;3.10;;
6840;SDS011;3458;53.678;14.080;2023-03-23T09:48:47;3.40;;;2.60;;
6840;SDS011;3458;53.678;14.080;2023-03-23T09:51:28;3.00;;;2.70;;
6840;SDS011;3458;53.678;14.080;2023-03-23T09:56:43;6.50;;;2.60;;
6840;SDS011;3458;53.678;14.080;2023-03-23T10:02:15;7.03;;;2.73;;
6840;SDS011;3458;53.678;14.080;2023-03-23T10:04:47;3.17;;;2.37;;
6840;SDS011;3458;53.678;14.080;2023-03-23T10:07:15;6.00;;;2.70;;
6840;SDS011;3458;53.678;14.080;2023-03-23T10:09:43;3.23;;;2.60;;
6840;SDS011;3458;53.678;14.080;2023-03-23T10:12:18;3.77;;;3.20;;
6840;SDS011;3458;53.678;14.080;2023-03-23T10:15:10;3.40;;;2.33;;
6840;SDS011;3458;53.678;14.080;2023-03-23T10:20:29;4.40;;;2.60;;
6840;SDS011;3458;53.678;14.080;2023-03-23T10:28:50;4.43;;;2.40;;
6840;SDS011;3458;53.678;14.080;2023-03-23T10:31:47;7.60;;;3.97;;
6840;SDS011;3458;53.678;14.080;2023-03-23T10:34:41;5.03;;;2.60;;
6840;SDS011;3458;53.678;14.080;2023-03-23T10:39:49;4.23;;;2.40;;
6840;SDS011;3458;53.678;14.080;2023-03-23T10:42:27;3.47;;;2.60;;
6840;SDS011;3458;53.678;14.080;2023-03-23T10:45:09;3.60;;;2.27;;
6840;SDS011;3458;53.678;14.080;2023-03-23T10:47:36;3.03;;;2.23;;
6840;SDS011;3458;53.678;14.080;2023-03-23T10:50:04;5.50;;;2.77;;
6840;SDS011;3458;53.678;14.080;2023-03-23T10:52:32;7.90;;;2.77;;
6840;SDS011;3458;53.678;14.080;2023-03-23T10:55:05;3.93;;;1.97;;
6840;SDS011;3458;53.678;14.080;2023-03-23T10:57:37;2.83;;;1.90;;
6840;SDS011;3458;53.678;14.080;2023-03-23T11:00:20;2.83;;;2.30;;
6840;SDS011;3458;53.678;14.080;2023-03-23T11:05:59;3.63;;;2.77;;
6840;SDS011;3458;53.678;14.080;2023-03-23T11:08:29;4.00;;;2.30;;
6840;SDS011;3458;53.678;14.080;2023-03-23T11:11:16;4.13;;;1.80;;
6840;SDS011;3458;53.678;14.080;2023-03-23T11:13:44;3.40;;;2.20;;
6840;SDS011;3458;53.678;14.080;2023-03-23T11:16:21;4.23;;;2.40;;
6840;SDS011;3458;53.678;14.080;2023-03-23T11:18:48;2.23;;;2.03;;
6840;SDS011;3458;53.678;14.080;2023-03-23T11:21:14;2.70;;;2.13;;
6840;SDS011;3458;53.678;14.080;2023-03-23T11:23:41;4.77;;;2.37;;
6840;SDS011;3458;53.678;14.080;2023-03-23T11:28:46;3.27;;;2.30;;
6840;SDS011;3458;53.678;14.080;2023-03-23T11:31:47;4.70;;;2.37;;
6840;SDS011;3458;53.678;14.080;2023-03-23T11:34:24;2.97;;;2.30;;
6840;SDS011;3458;53.678;14.080;2023-03-23T11:36:57;5.00;;;2.50;;
6840;SDS011;3458;53.678;14.080;2023-03-23T11:39:32;3.43;;;2.60;;
6840;SDS011;3458;53.678;14.080;2023-03-23T11:42:17;9.53;;;5.30;;
6840;SDS011;3458;53.678;14.080;2023-03-23T11:44:45;3.10;;;2.50;;
6840;SDS011;3458;53.678;14.080;2023-03-23T11:49:55;4.93;;;2.43;;
6840;SDS011;3458;53.678;14.080;2023-03-23T11:53:00;1.73;;;1.63;;
6840;SDS011;3458;53.678;14.080;2023-03-23T11:55:36;3.53;;;2.10;;
6840;SDS011;3458;53.678;14.080;2023-03-23T11:58:17;2.70;;;2.13;;
6840;SDS011;3458;53.678;14.080;2023-03-23T12:00:57;2.83;;;2.13;;
6840;SDS011;3458;53.678;14.080;2023-03-23T12:03:35;3.47;;;1.67;;
6840;SDS011;3458;53.678;14.080;2023-03-23T12:06:06;3.60;;;1.83;;
6840;SDS011;3458;53.678;14.080;2023-03-23T12:14:10;2.33;;;1.90;;
6840;SDS011;3458;53.678;14.080;2023-03-23T12:19:48;2.50;;;1.50;;
6840;SDS011;3458;53.678;14.080;2023-03-23T12:22:41;4.57;;;1.77;;
6840;SDS011;3458;53.678;14.080;2023-03-23T12:25:30;6.80;;;2.23;;
6840;SDS011;3458;53.678;14.080;2023-03-23T12:28:18;7.43;;;2.13;;
6840;SDS011;3458;53.678;14.080;2023-03-23T12:31:18;6.83;;;2.60;;
6840;SDS011;3458;53.678;14.080;2023-03-23T12:36:50;3.90;;;2.07;;
6840;SDS011;3458;53.678;14.080;2023-03-23T12:39:57;4.13;;;2.17;;
6840;SDS011;3458;53.678;14.080;2023-03-23T12:42:41;2.37;;;1.80;;
6840;SDS011;3458;53.678;14.080;2023-03-23T12:47:59;7.40;;;2.10;;
6840;SDS011;3458;53.678;14.080;2023-03-23T12:50:33;4.03;;;1.80;;
6840;SDS011;3458;53.678;14.080;2023-03-23T12:58:44;2.13;;;1.83;;
6840;SDS011;3458;53.678;14.080;2023-03-23T13:01:17;2.60;;;1.93;;
6840;SDS011;3458;53.678;14.080;2023-03-23T13:03:49;1.60;;;1.43;;
6840;SDS011;3458;53.678;14.080;2023-03-23T13:06:40;3.57;;;1.77;;
6840;SDS011;3458;53.678;14.080;2023-03-23T13:09:19;4.40;;;1.93;;
6840;SDS011;3458;53.678;14.080;2023-03-23T13:11:53;3.17;;;1.17;;
6840;SDS011;3458;53.678;14.080;2023-03-23T13:14:41;1.70;;;1.13;;
6840;SDS011;3458;53.678;14.080;2023-03-23T13:17:17;1.97;;;1.30;;
6840;SDS011;3458;53.678;14.080;2023-03-23T13:20:09;1.57;;;1.00;;
6840;SDS011;3458;53.678;14.080;2023-03-23T13:22:47;1.33;;;1.00;;
6840;SDS011;3458;53.678;14.080;2023-03-23T13:25:26;2.30;;;1.13;;
6840;SDS011;3458;53.678;14.080;2023-03-23T13:28:15;1.30;;;1.20;;
6840;SDS011;3458;53.678;14.080;2023-03-23T13:30:52;2.23;;;1.10;;
6840;SDS011;3458;53.678;14.080;2023-03-23T13:33:19;1.90;;;1.03;;
6840;SDS011;3458;53.678;14.080;2023-03-23T13:35:46;1.30;;;1.20;;
6840;SDS011;3458;53.678;14.080;2023-03-23T13:38:19;4.20;;;1.00;;
6840;SDS011;3458;53.678;14.080;2023-03-23T13:40:53;1.60;;;1.10;;
6840;SDS011;3458;53.678;14.080;2023-03-23T13:43:27;1.83;;;1.10;;
6840;SDS011;3458;53.678;14.080;2023-03-23T13:48:48;1.73;;;1.10;;
6840;SDS011;3458;53.678;14.080;2023-03-23T13:54:06;1.40;;;1.00;;
6840;SDS011;3458;53.678;14.080;2023-03-23T13:56:52;1.00;;;1.00;;
6840;SDS011;3458;53.678;14.080;2023-03-23T14:01:51;1.77;;;1.30;;
6840;SDS011;3458;53.678;14.080;2023-03-23T14:04:18;1.20;;;1.03;;
6840;SDS011;3458;53.678;14.080;2023-03-23T14:06:48;2.20;;;1.10;;
6840;SDS011;3458;53.678;14.080;2023-03-23T14:12:17;1.73;;;1.13;;
6840;SDS011;3458;53.678;14.080;2023-03-23T14:14:47;2.30;;;1.40;;
6840;SDS011;3458;53.678;14.080;2023-03-23T14:17:16;2.07;;;1.10;;
6840;SDS011;3458;53.678;14.080;2023-03-23T14:19:48;2.47;;;1.50;;
6840;SDS011;3458;53.678;14.080;2023-03-23T14:22:19;3.13;;;1.50;;
6840;SDS011;3458;53.678;14.080;2023-03-23T14:24:49;4.50;;;1.40;;
6840;SDS011;3458;53.678;14.080;2023-03-23T14:27:16;4.07;;;1.30;;
6840;SDS011;3458;53.678;14.080;2023-03-23T14:29:44;2.07;;;1.30;;
6840;SDS011;3458;53.678;14.080;2023-03-23T14:32:14;5.13;;;1.30;;
6840;SDS011;3458;53.678;14.080;2023-03-23T14:34:43;4.27;;;1.53;;
6840;SDS011;3458;53.678;14.080;2023-03-23T14:37:14;5.67;;;1.73;;
6840;SDS011;3458;53.678;14.080;2023-03-23T14:39:43;1.63;;;1.33;;
6840;SDS011;3458;53.678;14.080;2023-03-23T14:42:11;3.40;;;1.10;;
6840;SDS011;3458;53.678;14.080;2023-03-23T14:44:40;5.13;;;1.30;;
6840;SDS011;3458;53.678;14.080;2023-03-23T14:47:16;6.73;;;1.63;;
6840;SDS011;3458;53.678;14.080;2023-03-23T14:49:45;2.60;;;1.40;;
6840;SDS011;3458;53.678;14.080;2023-03-23T14:52:12;1.77;;;1.30;;
6840;SDS011;3458;53.678;14.080;2023-03-23T14:54:42;11.60;;;1.73;;
6840;SDS011;3458;53.678;14.080;2023-03-23T14:57:19;2.03;;;1.20;;
6840;SDS011;3458;53.678;14.080;2023-03-23T14:59:52;4.03;;;1.40;;
6840;SDS011;3458;53.678;14.080;2023-03-23T15:02:25;3.53;;;1.57;;
6840;SDS011;3458;53.678;14.080;2023-03-23T15:05:04;5.97;;;1.80;;
6840;SDS011;3458;53.678;14.080;2023-03-23T15:07:47;1.97;;;1.10;;
6840;SDS011;3458;53.678;14.080;2023-03-23T15:10:17;4.70;;;1.30;;
6840;SDS011;3458;53.678;14.080;2023-03-23T15:12:45;3.40;;;1.57;;
6840;SDS011;3458;53.678;14.080;2023-03-23T15:15:29;5.47;;;1.73;;
6840;SDS011;3458;53.678;14.080;2023-03-23T15:17:57;1.37;;;1.27;;
6840;SDS011;3458;53.678;14.080;2023-03-23T15:20:25;1.77;;;1.10;;
6840;SDS011;3458;53.678;14.080;2023-03-23T15:22:55;6.27;;;1.30;;
6840;SDS011;3458;53.678;14.080;2023-03-23T15:27:56;2.40;;;1.10;;
6840;SDS011;3458;53.678;14.080;2023-03-23T15:32:52;3.07;;;1.20;;
6840;SDS011;3458;53.678;14.080;2023-03-23T15:35:21;1.90;;;1.30;;
6840;SDS011;3458;53.678;14.080;2023-03-23T15:37:53;4.23;;;1.50;;
6840;SDS011;3458;53.678;14.080;2023-03-23T15:40:24;1.80;;;1.00;;
6840;SDS011;3458;53.678;14.080;2023-03-23T15:42:50;1.57;;;1.17;;
6840;SDS011;3458;53.678;14.080;2023-03-23T15:45:31;4.90;;;1.40;;
6840;SDS011;3458;53.678;14.080;2023-03-23T15:47:58;1.30;;;1.20;;
6840;SDS011;3458;53.678;14.080;2023-03-23T15:50:35;3.20;;;1.07;;
6840;SDS011;3458;53.678;14.080;2023-03-23T15:53:04;4.80;;;1.40;;
6840;SDS011;3458;53.678;14.080;2023-03-23T15:55:42;9.63;;;5.60;;
6840;SDS011;3458;53.678;14.080;2023-03-23T15:58:09;1.57;;;1.10;;
6840;SDS011;3458;53.678;14.080;2023-03-23T16:00:35;2.20;;;1.20;;
6840;SDS011;3458;53.678;14.080;2023-03-23T16:03:03;15.90;;;9.83;;
6840;SDS011;3458;53.678;14.080;2023-03-23T16:05:30;5.67;;;3.33;;
6840;SDS011;3458;53.678;14.080;2023-03-23T16:07:57;6.30;;;2.13;;
6840;SDS011;3458;53.678;14.080;2023-03-23T16:10:23;3.83;;;1.40;;
6840;SDS011;3458;53.678;14.080;2023-03-23T16:12:50;7.23;;;1.80;;
6840;SDS011;3458;53.678;14.080;2023-03-23T16:15:16;7.33;;;2.00;;
6840;SDS011;3458;53.678;14.080;2023-03-23T16:17:43;7.83;;;1.57;;
6840;SDS011;3458;53.678;14.080;2023-03-23T16:20:10;2.80;;;1.50;;
6840;SDS011;3458;53.678;14.080;2023-03-23T16:22:46;4.50;;;1.50;;
6840;SDS011;3458;53.678;14.080;2023-03-23T16:25:13;3.73;;;1.50;;
6840;SDS011;3458;53.678;14.080;2023-03-23T16:27:39;3.57;;;1.50;;
6840;SDS011;3458;53.678;14.080;2023-03-23T16:30:16;3.93;;;1.63;;
6840;SDS011;3458;53.678;14.080;2023-03-23T16:32:47;7.77;;;2.10;;
6840;SDS011;3458;53.678;14.080;2023-03-23T16:35:13;4.07;;;1.90;;
6840;SDS011;3458;53.678;14.080;2023-03-23T16:37:43;5.03;;;2.10;;
6840;SDS011;3458;53.678;14.080;2023-03-23T16:40:19;1.93;;;1.30;;
6840;SDS011;3458;53.678;14.080;2023-03-23T16:42:45;3.20;;;1.50;;
6840;SDS011;3458;53.678;14.080;2023-03-23T16:45:12;4.20;;;1.80;;